createdAt,value
2018-03-31T00:00:58.305Z,92317.31
2018-03-31T00:03:24.348Z,92314.39
2018-03-31T00:05:50.391Z,92310.39
2018-03-31T00:08:16.556Z,92304.82
2018-03-31T00:10:42.603Z,92300.57
2018-03-31T00:13:08.757Z,92298.66
2018-03-31T00:15:34.789Z,92300.58
2018-03-31T00:18:01.604Z,92305.92
2018-03-31T00:20:27.684Z,92309.67
2018-03-31T00:22:53.711Z,92309.74
2018-03-31T00:25:19.758Z,92306.98
2018-03-31T00:27:45.855Z,92292.44
2018-03-31T00:30:12.014Z,92298.74
2018-03-31T00:32:38.997Z,92292.86
2018-03-31T00:35:05.029Z,92289.03
2018-03-31T00:37:31.113Z,92295.21
2018-03-31T00:39:57.180Z,92294.33
2018-03-31T00:42:23.417Z,92292.27
2018-03-31T00:44:49.611Z,92287.61
2018-03-31T00:47:15.665Z,92289.23
2018-03-31T00:49:41.691Z,92293.84
2018-03-31T00:52:07.800Z,92281.49
2018-03-31T00:54:33.847Z,92287.14
2018-03-31T00:56:59.974Z,92289.09
2018-03-31T00:59:26.040Z,92291.11
2018-03-31T01:01:52.068Z,92292.95
2018-03-31T01:04:18.144Z,92296.27
2018-03-31T01:06:44.186Z,92294.03
2018-03-31T01:09:10.220Z,92292.43
2018-03-31T01:11:36.308Z,92295.58
2018-03-31T01:14:02.344Z,92294.17
2018-03-31T01:16:28.366Z,92295.70
2018-03-31T01:18:54.561Z,92293.39
2018-03-31T01:21:20.621Z,92285.98
2018-03-31T01:23:46.675Z,92281.55
2018-03-31T01:26:12.747Z,92292.48
2018-03-31T01:28:38.915Z,92288.45
2018-03-31T01:31:04.960Z,92281.96
2018-03-31T01:33:31.104Z,92289.61
2018-03-31T01:35:57.490Z,92297.28
2018-03-31T01:38:23.500Z,92287.53
2018-03-31T01:40:49.525Z,92281.71
2018-03-31T01:43:16.497Z,92272.23
2018-03-31T01:45:42.549Z,92267.07
2018-03-31T01:48:08.605Z,92265.78
2018-03-31T01:50:34.772Z,92268.60
2018-03-31T01:53:00.830Z,92273.41
2018-03-31T01:55:26.926Z,92273.80
2018-03-31T01:57:52.959Z,92262.88
2018-03-31T02:00:18.993Z,92265.84
2018-03-31T02:02:45.172Z,92275.25
2018-03-31T02:05:11.205Z,92276.36
2018-03-31T02:07:37.220Z,92282.86
2018-03-31T02:10:03.449Z,92290.09
2018-03-31T02:12:29.705Z,92280.28
2018-03-31T02:14:55.789Z,92271.66
2018-03-31T02:17:21.911Z,92273.05
2018-03-31T02:19:50.923Z,92264.11
2018-03-31T02:22:16.972Z,92263.69
2018-03-31T02:24:43.063Z,92270.37
2018-03-31T02:27:10.940Z,92262.05
2018-03-31T02:29:37.145Z,92252.75
2018-03-31T02:32:03.200Z,92250.73
2018-03-31T02:34:29.225Z,92254.70
2018-03-31T02:36:55.306Z,92252.64
2018-03-31T02:39:21.342Z,92248.67
2018-03-31T02:41:47.366Z,92250.84
2018-03-31T02:44:16.701Z,92243.27
2018-03-31T02:46:42.859Z,92243.37
2018-03-31T02:49:08.903Z,92238.15
2018-03-31T02:51:34.949Z,92234.33
2018-03-31T02:54:01.052Z,92233.04
2018-03-31T02:56:27.136Z,92230.12
2018-03-31T02:58:53.214Z,92235.55
2018-03-31T03:01:19.342Z,92236.41
2018-03-31T03:03:45.387Z,92241.91
2018-03-31T03:06:11.789Z,92234.11
2018-03-31T03:08:37.816Z,92231.46
2018-03-31T03:11:03.840Z,92225.99
2018-03-31T03:13:29.937Z,92231.30
2018-03-31T03:15:55.974Z,92235.28
2018-03-31T03:18:22.055Z,92228.95
2018-03-31T03:20:51.485Z,92226.59
2018-03-31T03:23:17.526Z,92228.63
2018-03-31T03:25:43.603Z,92227.05
2018-03-31T03:28:09.685Z,92222.62
2018-03-31T03:30:35.884Z,92230.84
2018-03-31T03:33:01.924Z,92224.84
2018-03-31T03:35:27.957Z,92214.89
2018-03-31T03:37:54.023Z,92223.22
2018-03-31T03:40:20.060Z,92218.55
2018-03-31T03:42:46.936Z,92216.61
2018-03-31T03:45:13.289Z,92217.64
2018-03-31T03:47:39.384Z,92212.89
2018-03-31T03:50:05.416Z,92203.66
2018-03-31T03:52:31.666Z,92211.00
2018-03-31T03:54:57.721Z,92214.81
2018-03-31T03:57:23.763Z,92205.97
2018-03-31T03:59:49.903Z,92204.55
2018-03-31T04:02:15.944Z,92204.73
2018-03-31T04:04:41.997Z,92210.91
2018-03-31T04:07:08.326Z,92208.11
2018-03-31T04:09:34.421Z,92201.81
2018-03-31T04:12:00.561Z,92212.35
2018-03-31T04:14:26.602Z,92194.52
2018-03-31T04:16:52.674Z,92199.76
2018-03-31T04:19:18.825Z,92198.98
2018-03-31T04:21:44.905Z,92199.59
2018-03-31T04:24:10.979Z,92202.55
2018-03-31T04:26:37.036Z,92203.07
2018-03-31T04:29:03.112Z,92193.64
2018-03-31T04:31:29.164Z,92198.88
2018-03-31T04:33:55.326Z,92200.91
2018-03-31T04:36:21.418Z,92198.47
2018-03-31T04:38:47.497Z,92203.53
2018-03-31T04:41:13.740Z,92191.10
2018-03-31T04:43:40.715Z,92192.89
2018-03-31T04:46:06.966Z,92190.02
2018-03-31T04:48:33.120Z,92177.28
2018-03-31T04:50:59.236Z,92182.03
2018-03-31T04:53:25.312Z,92203.08
2018-03-31T04:55:51.430Z,92215.73
2018-03-31T04:58:17.541Z,92218.37
2018-03-31T05:00:43.614Z,92208.53
2018-03-31T05:03:09.945Z,92210.29
2018-03-31T05:05:36.075Z,92200.73
2018-03-31T05:08:02.351Z,92216.23
2018-03-31T05:10:28.660Z,92228.13
2018-03-31T05:12:54.772Z,92230.75
2018-03-31T05:15:20.926Z,92238.88
2018-03-31T05:17:47.029Z,92242.97
2018-03-31T05:20:13.170Z,92240.69
2018-03-31T05:22:39.255Z,92247.65
2018-03-31T05:25:05.359Z,92262.52
2018-03-31T05:27:31.570Z,92257.37
2018-03-31T05:29:57.716Z,92257.07
2018-03-31T05:32:23.961Z,92278.95
2018-03-31T05:34:50.126Z,92264.94
2018-03-31T05:37:16.300Z,92262.84
2018-03-31T05:39:42.516Z,92258.36
2018-03-31T05:45:11.273Z,92259.87
2018-03-31T05:47:37.468Z,92258.91
2018-03-31T05:50:03.583Z,92260.94
2018-03-31T05:52:29.851Z,92251.37
2018-03-31T05:54:55.933Z,92249.47
2018-03-31T05:57:22.010Z,92237.16
2018-03-31T05:59:48.214Z,92234.66
2018-03-31T06:02:14.726Z,92227.25
2018-03-31T06:04:40.994Z,92231.48
2018-03-31T06:07:07.305Z,92218.43
2018-03-31T06:09:33.369Z,92213.71
2018-03-31T06:11:59.593Z,92213.70
2018-03-31T06:14:26.150Z,92227.34
2018-03-31T06:16:52.372Z,92222.08
2018-03-31T06:19:18.549Z,92225.20
2018-03-31T06:21:44.717Z,92226.09
2018-03-31T06:24:10.812Z,92236.88
2018-03-31T06:26:37.033Z,92222.77
2018-03-31T06:29:03.181Z,92215.76
2018-03-31T06:31:29.219Z,92223.14
2018-03-31T06:33:58.529Z,92233.38
2018-03-31T06:36:24.604Z,92222.09
2018-03-31T06:38:50.697Z,92219.95
2018-03-31T06:41:16.914Z,92220.64
2018-03-31T06:43:43.102Z,92227.97
2018-03-31T06:46:09.357Z,92231.77
2018-03-31T06:48:35.494Z,92214.19
2018-03-31T06:51:01.622Z,92233.38
2018-03-31T06:53:27.822Z,92217.82
2018-03-31T06:55:54.009Z,92218.77
2018-03-31T06:58:20.115Z,92234.12
2018-03-31T07:00:46.268Z,92218.23
2018-03-31T07:03:12.585Z,92221.50
2018-03-31T07:05:38.704Z,92215.44
2018-03-31T07:08:04.756Z,92206.89
2018-03-31T07:10:30.864Z,92203.11
2018-03-31T07:12:56.978Z,92211.69
2018-03-31T07:15:23.020Z,92220.64
2018-03-31T07:17:49.200Z,92212.77
2018-03-31T07:20:15.362Z,92198.14
2018-03-31T07:22:41.487Z,92206.97
2018-03-31T07:25:07.576Z,92195.98
2018-03-31T07:27:33.698Z,92201.09
2018-03-31T07:29:59.856Z,92206.23
2018-03-31T07:32:26.023Z,92202.95
2018-03-31T07:34:52.230Z,92197.34
2018-03-31T07:37:18.415Z,92213.19
2018-03-31T07:39:44.588Z,92207.36
2018-03-31T07:42:10.690Z,92204.28
2018-03-31T07:44:37.106Z,92192.95
2018-03-31T07:47:05.667Z,92189.58
2018-03-31T07:49:31.862Z,92159.70
2018-03-31T07:51:58.024Z,92164.55
2018-03-31T07:54:24.117Z,92167.33
2018-03-31T07:56:50.325Z,92173.84
2018-03-31T07:59:16.473Z,92169.95
2018-03-31T08:01:42.804Z,92173.98
2018-03-31T08:04:08.906Z,92172.83
2018-03-31T08:06:35.094Z,92167.58
2018-03-31T08:09:01.266Z,92155.70
2018-03-31T08:11:27.492Z,92155.84
2018-03-31T08:13:53.782Z,92140.80
2018-03-31T08:16:19.918Z,92133.30
2018-03-31T08:18:46.010Z,92147.08
2018-03-31T08:21:12.126Z,92150.50
2018-03-31T08:23:38.232Z,92151.00
2018-03-31T08:26:04.393Z,92152.30
2018-03-31T08:28:30.517Z,92140.59
2018-03-31T08:30:56.602Z,92147.78
2018-03-31T08:33:22.733Z,92138.55
2018-03-31T08:35:51.524Z,92143.48
2018-03-31T08:38:17.636Z,92140.67
2018-03-31T08:40:43.865Z,92131.05
2018-03-31T08:43:09.971Z,92127.83
2018-03-31T08:45:36.136Z,92126.19
2018-03-31T08:48:02.240Z,92127.22
2018-03-31T08:50:28.288Z,92127.27
2018-03-31T08:52:54.458Z,92113.56
2018-03-31T08:55:20.624Z,92103.50
2018-03-31T08:57:46.674Z,92110.16
2018-03-31T09:00:12.733Z,92121.51
2018-03-31T09:02:38.900Z,92121.03
2018-03-31T09:05:04.949Z,92127.63
2018-03-31T09:07:30.980Z,92130.94
2018-03-31T09:09:57.134Z,92127.47
2018-03-31T09:12:23.181Z,92119.11
2018-03-31T09:14:49.261Z,92095.41
2018-03-31T09:17:15.300Z,92092.38
2018-03-31T09:19:41.397Z,92084.63
2018-03-31T09:22:07.602Z,92068.61
2018-03-31T09:24:33.659Z,92071.09
2018-03-31T09:26:59.845Z,92058.59
2018-03-31T09:29:25.888Z,92065.30
2018-03-31T09:31:52.142Z,92069.30
2018-03-31T09:34:21.272Z,92077.77
2018-03-31T09:36:47.330Z,92082.31
2018-03-31T09:39:13.394Z,92066.45
2018-03-31T09:41:39.554Z,92084.23
2018-03-31T09:44:05.590Z,92057.69
2018-03-31T09:46:31.757Z,92054.43
2018-03-31T09:48:57.833Z,92058.88
2018-03-31T09:51:23.932Z,92033.39
2018-03-31T09:53:50.342Z,92004.83
2018-03-31T09:56:16.591Z,92006.02
2018-03-31T09:58:42.686Z,92021.02
2018-03-31T10:01:08.894Z,92028.89
2018-03-31T10:03:34.941Z,92039.72
2018-03-31T10:06:04.102Z,92053.61
2018-03-31T10:08:30.168Z,92037.95
2018-03-31T10:10:56.434Z,92029.89
2018-03-31T10:13:22.668Z,92029.20
2018-03-31T10:15:48.738Z,92032.78
2018-03-31T10:18:14.818Z,92039.60
2018-03-31T10:20:40.922Z,92035.48
2018-03-31T10:23:07.002Z,92041.37
2018-03-31T10:25:33.048Z,92033.95
2018-03-31T10:27:59.256Z,92023.89
2018-03-31T10:30:25.291Z,92020.30
2018-03-31T10:32:51.416Z,92012.98
2018-03-31T10:35:17.596Z,92009.05
2018-03-31T10:37:43.685Z,92005.58
2018-03-31T10:40:09.774Z,92003.44
2018-03-31T10:42:35.897Z,91998.09
2018-03-31T10:45:01.944Z,92000.53
2018-03-31T10:47:28.040Z,91999.05
2018-03-31T10:49:54.181Z,91989.06
2018-03-31T10:52:20.280Z,91980.48
2018-03-31T10:54:46.326Z,91973.59
2018-03-31T10:57:12.536Z,91972.59
2018-03-31T10:59:38.604Z,91968.94
2018-03-31T11:02:04.801Z,91966.53
2018-03-31T11:04:30.847Z,91956.27
2018-03-31T11:06:56.891Z,91953.37
2018-03-31T11:09:23.063Z,91946.55
2018-03-31T11:11:49.113Z,91944.58
2018-03-31T11:14:19.097Z,91935.72
2018-03-31T11:16:45.137Z,91935.36
2018-03-31T11:19:11.164Z,91927.47
2018-03-31T11:21:37.372Z,91931.11
2018-03-31T11:24:03.478Z,91934.78
2018-03-31T11:26:29.721Z,91918.63
2018-03-31T11:28:55.753Z,91925.52
2018-03-31T11:31:22.022Z,91918.44
2018-03-31T11:33:48.072Z,91910.21
2018-03-31T11:36:14.152Z,91894.18
2018-03-31T11:38:40.269Z,91897.90
2018-03-31T11:41:06.387Z,91889.68
2018-03-31T11:43:32.538Z,91872.97
2018-03-31T11:45:58.619Z,91872.54
2018-03-31T11:48:24.681Z,91869.16
2018-03-31T11:50:50.724Z,91867.16
2018-03-31T11:53:16.957Z,91864.75
2018-03-31T11:55:42.989Z,91859.61
2018-03-31T11:58:09.062Z,91858.55
2018-03-31T12:00:35.317Z,91847.35
2018-03-31T12:03:01.372Z,91841.91
2018-03-31T12:05:27.422Z,91846.25
2018-03-31T12:07:53.525Z,91841.08
2018-03-31T12:10:19.611Z,91841.72
2018-03-31T12:12:45.641Z,91836.70
2018-03-31T12:15:11.743Z,91828.13
2018-03-31T12:17:37.893Z,91809.00
2018-03-31T12:20:03.944Z,91810.94
2018-03-31T12:22:29.998Z,91807.84
2018-03-31T12:24:56.157Z,91805.02
2018-03-31T12:27:22.293Z,91804.31
2018-03-31T12:29:48.329Z,91790.34
2018-03-31T12:32:14.473Z,91792.45
2018-03-31T12:34:40.563Z,91774.69
2018-03-31T12:37:06.689Z,91773.13
2018-03-31T12:39:32.772Z,91760.53
2018-03-31T12:41:58.996Z,91766.41
2018-03-31T12:44:25.185Z,91752.89
2018-03-31T12:46:51.253Z,91758.81
2018-03-31T12:49:17.360Z,91765.14
2018-03-31T12:51:43.478Z,91773.02
2018-03-31T12:54:09.512Z,91779.94
2018-03-31T12:56:35.724Z,91771.77
2018-03-31T12:59:01.852Z,91768.11
2018-03-31T13:01:27.976Z,91764.02
2018-03-31T13:03:54.008Z,91769.41
2018-03-31T13:06:20.112Z,91755.00
2018-03-31T13:08:46.145Z,91748.08
2018-03-31T13:11:12.233Z,91753.16
2018-03-31T13:13:38.359Z,91753.13
2018-03-31T13:16:05.206Z,91725.80
2018-03-31T13:18:31.281Z,91721.30
2018-03-31T13:20:57.415Z,91723.61
2018-03-31T13:23:23.431Z,91710.19
2018-03-31T13:25:49.477Z,91708.69
2018-03-31T13:28:15.539Z,91711.89
2018-03-31T13:30:41.573Z,91704.98
2018-03-31T13:33:07.663Z,91694.84
2018-03-31T13:35:33.820Z,91696.22
2018-03-31T13:37:59.944Z,91687.30
2018-03-31T13:40:26.136Z,91679.50
2018-03-31T13:42:52.232Z,91679.69
2018-03-31T13:45:18.294Z,91674.33
2018-03-31T13:47:44.388Z,91668.73
2018-03-31T13:50:12.157Z,91675.04
2018-03-31T13:52:38.215Z,91667.34
2018-03-31T13:55:04.265Z,91665.36
2018-03-31T13:57:30.481Z,91665.07
2018-03-31T13:59:56.582Z,91666.06
2018-03-31T14:02:22.715Z,91669.94
2018-03-31T14:04:48.739Z,91675.38
2018-03-31T14:07:14.767Z,91671.92
2018-03-31T14:09:40.857Z,91665.13
2018-03-31T14:12:07.237Z,91656.72
2018-03-31T14:14:33.369Z,91656.77
2018-03-31T14:16:59.416Z,91660.28
2018-03-31T14:19:25.585Z,91656.20
2018-03-31T14:21:51.689Z,91661.63
2018-03-31T14:24:17.754Z,91659.34
2018-03-31T14:26:43.814Z,91648.13
2018-03-31T14:29:09.904Z,91645.88
2018-03-31T14:31:36.062Z,91650.00
2018-03-31T14:34:02.155Z,91651.06
2018-03-31T14:36:28.449Z,91650.77
2018-03-31T14:38:54.532Z,91639.39
2018-03-31T14:41:20.606Z,91658.49
2018-03-31T14:43:46.833Z,91656.48
2018-03-31T14:46:13.103Z,91655.22
2018-03-31T14:48:39.160Z,91644.16
2018-03-31T14:51:05.236Z,91643.88
2018-03-31T14:53:31.301Z,91647.23
2018-03-31T14:55:57.395Z,91654.45
2018-03-31T14:58:23.645Z,91643.03
2018-03-31T15:00:49.726Z,91648.08
2018-03-31T15:03:15.818Z,91645.83
2018-03-31T15:05:41.973Z,91644.52
2018-03-31T15:08:08.080Z,91636.41
2018-03-31T15:10:34.137Z,91622.98
2018-03-31T15:13:00.223Z,91628.77
2018-03-31T15:15:27.195Z,91630.56
2018-03-31T15:17:53.223Z,91624.03
2018-03-31T15:20:19.388Z,91620.67
2018-03-31T15:22:45.581Z,91612.77
2018-03-31T15:25:11.962Z,91616.37
2018-03-31T15:27:38.215Z,91611.80
2018-03-31T15:30:04.332Z,91610.66
2018-03-31T15:32:30.396Z,91612.70
2018-03-31T15:34:56.502Z,91602.69
2018-03-31T15:37:22.674Z,91604.67
2018-03-31T15:39:48.712Z,91612.59
2018-03-31T15:42:14.780Z,91605.61
2018-03-31T15:44:40.933Z,91601.14
2018-03-31T15:47:06.972Z,91613.93
2018-03-31T15:49:33.022Z,91614.33
2018-03-31T15:51:59.501Z,91603.12
2018-03-31T15:54:25.794Z,91629.00
2018-03-31T15:56:51.912Z,91622.88
2018-03-31T15:59:18.293Z,91635.03
2018-03-31T16:01:44.393Z,91624.84
2018-03-31T16:04:10.401Z,91633.91
2018-03-31T16:06:36.565Z,91621.39
2018-03-31T16:09:02.746Z,91631.19
2018-03-31T16:11:28.780Z,91630.86
2018-03-31T16:13:56.723Z,91615.67
2018-03-31T16:16:23.352Z,91606.55
2018-03-31T16:18:49.384Z,91607.05
2018-03-31T16:21:15.494Z,91606.05
2018-03-31T16:23:41.589Z,91595.48
2018-03-31T16:26:09.139Z,91595.48
2018-03-31T16:28:35.871Z,91598.22
2018-03-31T16:31:01.902Z,91598.15
2018-03-31T16:33:27.976Z,91620.31
2018-03-31T16:35:54.157Z,91600.81
2018-03-31T16:38:20.187Z,91593.02
2018-03-31T16:40:46.261Z,91601.52
2018-03-31T16:43:12.398Z,91595.39
2018-03-31T16:45:38.545Z,91582.19
2018-03-31T16:48:04.707Z,91578.80
2018-03-31T16:50:30.821Z,91589.28
2018-03-31T16:52:57.005Z,91580.50
2018-03-31T16:55:23.136Z,91576.13
2018-03-31T16:57:49.232Z,91562.98
2018-03-31T17:00:15.656Z,91572.77
2018-03-31T17:02:41.751Z,91556.02
2018-03-31T17:05:07.917Z,91562.84
2018-03-31T17:07:34.000Z,91549.47
2018-03-31T17:10:00.070Z,91551.67
2018-03-31T17:12:26.119Z,91550.72
2018-03-31T17:14:52.361Z,91550.38
2018-03-31T17:17:18.405Z,91557.80
2018-03-31T17:19:44.466Z,91551.55
2018-03-31T17:22:11.054Z,91554.30
2018-03-31T17:24:37.136Z,91559.77
2018-03-31T17:27:03.229Z,91556.72
2018-03-31T17:29:29.289Z,91563.63
2018-03-31T17:31:55.470Z,91570.23
2018-03-31T17:34:21.569Z,91564.11
2018-03-31T17:36:47.626Z,91580.82
2018-03-31T17:39:13.793Z,91574.34
2018-03-31T17:41:39.809Z,91569.70
2018-03-31T17:44:05.914Z,91577.31
2018-03-31T17:46:31.954Z,91582.65
2018-03-31T17:48:58.092Z,91589.03
2018-03-31T17:51:24.221Z,91577.89
2018-03-31T17:53:50.236Z,91583.67
2018-03-31T17:56:16.275Z,91584.81
2018-03-31T17:58:42.418Z,91577.59
2018-03-31T18:01:08.498Z,91581.48
2018-03-31T18:03:34.556Z,91588.64
2018-03-31T18:06:00.573Z,91576.67
2018-03-31T18:08:26.598Z,91577.34
2018-03-31T18:10:52.676Z,91570.92
2018-03-31T18:13:18.708Z,91571.11
2018-03-31T18:15:44.933Z,91562.56
2018-03-31T18:18:10.998Z,91564.44
2018-03-31T18:20:40.034Z,91553.06
2018-03-31T18:23:06.176Z,91559.09
2018-03-31T18:25:32.212Z,91559.34
2018-03-31T18:28:00.827Z,91550.95
2018-03-31T18:30:26.861Z,91538.81
2018-03-31T18:32:52.972Z,91529.38
2018-03-31T18:35:22.127Z,91521.70
2018-03-31T18:37:48.198Z,91527.09
2018-03-31T18:40:14.280Z,91505.88
2018-03-31T18:42:40.381Z,91522.31
2018-03-31T18:45:06.517Z,91517.09
2018-03-31T18:47:32.609Z,91521.45
2018-03-31T18:49:58.810Z,91502.87
2018-03-31T18:52:24.853Z,91502.25
2018-03-31T18:54:50.991Z,91503.66
2018-03-31T18:57:17.013Z,91485.50
2018-03-31T18:59:43.037Z,91467.80
2018-03-31T19:02:09.174Z,91493.94
2018-03-31T19:04:35.289Z,91482.86
2018-03-31T19:07:01.350Z,91470.44
2018-03-31T19:09:27.382Z,91472.08
2018-03-31T19:11:53.569Z,91484.83
2018-03-31T19:14:19.593Z,91484.71
2018-03-31T19:16:51.545Z,91460.98
2018-03-31T19:19:17.629Z,91469.24
2018-03-31T19:21:43.672Z,91471.05
2018-03-31T19:24:09.718Z,91467.66
2018-03-31T19:26:35.800Z,91485.64
2018-03-31T19:29:01.841Z,91465.57
2018-03-31T19:31:27.933Z,91472.71
2018-03-31T19:33:54.078Z,91462.05
2018-03-31T19:36:20.120Z,91480.50
2018-03-31T19:38:46.138Z,91488.64
2018-03-31T19:41:12.272Z,91465.03
2018-03-31T19:43:38.308Z,91469.42
2018-03-31T19:46:04.574Z,91471.34
2018-03-31T19:48:30.607Z,91457.11
2018-03-31T19:50:59.376Z,91453.36
2018-03-31T19:53:25.675Z,91443.70
2018-03-31T19:55:51.709Z,91455.70
2018-03-31T19:58:17.730Z,91448.44
2018-03-31T20:00:43.790Z,91433.50
2018-03-31T20:03:09.819Z,91435.14
2018-03-31T20:05:35.973Z,91432.79
2018-03-31T20:08:02.102Z,91431.78
2018-03-31T20:10:28.126Z,91418.55
2018-03-31T20:12:54.224Z,91407.89
2018-03-31T20:15:20.270Z,91413.13
2018-03-31T20:17:46.292Z,91376.30
2018-03-31T20:20:12.371Z,91355.77
2018-03-31T20:22:38.406Z,91352.14
2018-03-31T20:25:04.512Z,91363.67
2018-03-31T20:27:30.544Z,91355.71
2018-03-31T20:29:56.572Z,91347.98
2018-03-31T20:32:22.725Z,91346.58
2018-03-31T20:34:48.785Z,91350.61
2018-03-31T20:37:14.830Z,91325.86
2018-03-31T20:39:40.901Z,91314.80
2018-03-31T20:42:06.918Z,91341.34
2018-03-31T20:44:32.942Z,91329.47
2018-03-31T20:46:59.067Z,91351.87
2018-03-31T20:49:25.110Z,91346.43
2018-03-31T20:51:52.214Z,91339.29
2018-03-31T20:54:18.310Z,91341.33
2018-03-31T20:56:44.342Z,91336.94
2018-03-31T20:59:13.372Z,91325.89
2018-03-31T21:01:39.422Z,91339.05
2018-03-31T21:04:05.445Z,91338.34
2018-03-31T21:06:31.472Z,91327.52
2018-03-31T21:08:57.601Z,91328.52
2018-03-31T21:11:23.632Z,91332.97
2018-03-31T21:13:49.656Z,91313.83
2018-03-31T21:16:15.724Z,91308.57
2018-03-31T21:18:41.774Z,91315.10
2018-03-31T21:21:07.812Z,91303.70
2018-03-31T21:23:33.939Z,91291.37
2018-03-31T21:26:00.101Z,91305.92
2018-03-31T21:28:26.205Z,91290.89
2018-03-31T21:30:52.245Z,91296.09
2018-03-31T21:33:18.349Z,91293.41
2018-03-31T21:35:44.432Z,91277.27
2018-03-31T21:38:10.431Z,91280.83
2018-03-31T21:40:36.543Z,91277.44
2018-03-31T21:43:02.589Z,91271.65
2018-03-31T21:45:28.621Z,91275.98
2018-03-31T21:47:54.738Z,91268.98
2018-03-31T21:50:20.964Z,91270.96
2018-03-31T21:52:46.985Z,91259.55
2018-03-31T21:55:13.228Z,91245.70
2018-03-31T21:57:39.257Z,91255.86
2018-03-31T22:00:05.280Z,91264.63
2018-03-31T22:02:31.341Z,91246.45
2018-03-31T22:04:57.359Z,91250.37
2018-03-31T22:07:23.387Z,91253.30
2018-03-31T22:09:49.490Z,91254.05
2018-03-31T22:12:15.517Z,91245.81
2018-03-31T22:17:43.653Z,91227.16
2018-03-31T22:20:09.819Z,91222.36
2018-03-31T22:22:35.940Z,91216.80
2018-03-31T22:25:02.072Z,91201.90
2018-03-31T22:27:28.113Z,91214.41
2018-03-31T22:29:54.135Z,91204.42
2018-03-31T22:32:20.322Z,91218.45
2018-03-31T22:34:46.361Z,91220.37
2018-03-31T22:37:12.412Z,91209.85
2018-03-31T22:39:38.528Z,91213.00
2018-03-31T22:42:04.520Z,91199.73
2018-03-31T22:44:30.541Z,91201.14
2018-03-31T22:46:56.657Z,91201.78
2018-03-31T22:49:22.673Z,91179.22
2018-03-31T22:51:48.696Z,91183.30
2018-03-31T22:54:14.829Z,91181.61
2018-03-31T22:56:40.912Z,91188.39
2018-03-31T22:59:06.992Z,91178.80
2018-03-31T23:01:33.253Z,91170.57
2018-03-31T23:03:59.429Z,91160.41
2018-03-31T23:06:25.766Z,91154.62
2018-03-31T23:08:51.799Z,91136.73
2018-03-31T23:11:17.882Z,91138.69
2018-03-31T23:13:43.909Z,91115.84
2018-03-31T23:16:09.926Z,91122.27
2018-03-31T23:18:36.041Z,91113.55
2018-03-31T23:21:02.117Z,91102.80
2018-03-31T23:23:28.157Z,91104.15
2018-03-31T23:25:57.387Z,91111.80
2018-03-31T23:28:23.509Z,91094.16
2018-03-31T23:30:49.517Z,91095.21
2018-03-31T23:33:15.587Z,91105.55
2018-03-31T23:35:41.646Z,91105.38
2018-03-31T23:38:07.662Z,91083.83
2018-03-31T23:40:33.692Z,91085.81
2018-03-31T23:42:59.812Z,91077.52
2018-03-31T23:45:26.072Z,91056.55
2018-03-31T23:47:52.114Z,91051.02
2018-03-31T23:50:18.168Z,91035.89
2018-03-31T23:52:44.184Z,91037.29
2018-03-31T23:55:10.202Z,91031.73
2018-03-31T23:57:36.251Z,91026.48
